Time;durP1;ratioP1;P1;durP2;ratioP2;P2;SDS_P1;SDS_P2;PMS_P1;PMS_P2;Temp;Humidity;BMP_temperature;BMP_pressure;BME280_temperature;BME280_humidity;BME280_pressure;Samples;Min_cycle;Max_cycle;Signal;HPM_P1;HPM_P2
2023/05/24 00:00:05;;;;;;;7.90;1.88;;;;;;;9.13;78.94;102113.25;4961578;28;20045;-68
2023/05/24 00:02:30;;;;;;;9.68;2.00;;;;;;;9.08;79.09;102112.81;4982989;28;20423;-68
2023/05/24 00:04:59;;;;;;;11.23;2.10;;;;;;;9.04;79.66;102123.47;4963024;28;20335;-68
2023/05/24 00:07:25;;;;;;;14.50;2.28;;;;;;;9.01;79.76;102119.38;4962396;28;20568;-68
2023/05/24 00:09:50;;;;;;;10.68;1.70;;;;;;;9.00;79.85;102117.69;4978573;28;20133;-68
2023/05/24 00:12:16;;;;;;;10.15;2.40;;;;;;;8.98;79.76;102126.53;4978998;28;20026;-68
2023/05/24 00:14:41;;;;;;;8.65;1.80;;;;;;;8.91;79.87;102119.22;4967918;28;20387;-68
2023/05/24 00:17:07;;;;;;;5.50;1.80;;;;;;;8.87;80.15;102119.53;4978564;28;20035;-68
2023/05/24 00:19:32;;;;;;;10.45;1.83;;;;;;;8.86;80.45;102113.56;4964331;28;20053;-68
2023/05/24 00:21:58;;;;;;;8.40;1.80;;;;;;;8.82;80.49;102119.91;4977355;28;20105;-68
2023/05/24 00:24:23;;;;;;;8.88;1.80;;;;;;;8.81;80.88;102120.00;4978786;28;20104;-68
2023/05/24 00:26:49;;;;;;;10.25;1.92;;;;;;;8.79;81.15;102120.09;4980505;28;20504;-67
2023/05/24 00:29:15;;;;;;;13.60;2.00;;;;;;;8.69;80.77;102113.97;4978173;28;20085;-68
2023/05/24 00:31:40;;;;;;;7.35;1.55;;;;;;;8.64;81.44;102116.88;4965555;28;20496;-68
2023/05/24 00:34:06;;;;;;;6.72;1.88;;;;;;;8.56;81.66;102120.03;4979971;28;20641;-67
2023/05/24 00:36:32;;;;;;;14.82;2.03;;;;;;;8.51;82.26;102106.63;4954905;28;20460;-68
2023/05/24 00:38:58;;;;;;;10.02;2.08;;;;;;;8.46;82.81;102107.88;4980028;28;20057;-68
2023/05/24 00:41:23;;;;;;;7.38;1.80;;;;;;;8.42;82.98;102098.69;4964191;28;20034;-68
2023/05/24 00:43:49;;;;;;;12.18;2.53;;;;;;;8.37;83.09;102096.41;4966075;28;20420;-68
2023/05/24 00:46:23;;;;;;;9.55;2.40;;;;;;;8.29;83.59;102103.88;4980542;28;21010;-68
2023/05/24 00:48:49;;;;;;;10.88;2.13;;;;;;;8.25;83.87;102107.59;4964086;28;20100;-68
2023/05/24 00:51:16;;;;;;;11.60;2.30;;;;;;;8.21;84.41;102113.91;4981753;28;20022;-68
2023/05/24 00:53:44;;;;;;;10.52;2.13;;;;;;;8.17;84.50;102106.41;4980715;28;20050;-68
2023/05/24 00:56:13;;;;;;;6.95;1.70;;;;;;;8.18;84.78;102109.81;4981982;28;20026;-68
2023/05/24 00:58:38;;;;;;;12.65;1.98;;;;;;;8.17;84.94;102105.56;4968739;28;20034;-68
2023/05/24 01:01:04;;;;;;;7.47;2.17;;;;;;;8.17;84.78;102109.00;4957748;28;20038;-68
2023/05/24 01:03:30;;;;;;;13.13;2.15;;;;;;;8.16;84.75;102109.91;4982347;28;20050;-68
2023/05/24 01:06:02;;;;;;;6.28;1.83;;;;;;;8.14;84.96;102106.63;4950285;28;20034;-68
2023/05/24 01:08:54;;;;;;;9.70;1.92;;;;;;;8.11;85.00;102111.16;4949271;28;20046;-68
2023/05/24 01:11:23;;;;;;;5.55;1.88;;;;;;;8.09;85.01;102103.53;4919813;28;20050;-68
2023/05/24 01:14:07;;;;;;;7.43;1.88;;;;;;;8.07;85.01;102100.22;4962028;28;20042;-68
2023/05/24 01:16:48;;;;;;;8.77;2.10;;;;;;;8.02;85.11;102102.28;4981095;28;20027;-68
2023/05/24 01:19:47;;;;;;;9.13;2.13;;;;;;;7.99;85.32;102098.19;4983359;28;20072;-68
2023/05/24 01:22:45;;;;;;;13.32;3.28;;;;;;;7.95;85.45;102099.34;4963831;28;20034;-68
2023/05/24 01:25:40;;;;;;;10.90;2.30;;;;;;;7.93;85.77;102097.78;4964289;28;20085;-68
2023/05/24 01:28:09;;;;;;;7.75;1.70;;;;;;;7.87;85.76;102098.19;4978114;28;20125;-67
2023/05/24 01:30:35;;;;;;;9.32;2.15;;;;;;;7.78;85.97;102097.09;4981838;28;20038;-68
2023/05/24 01:33:01;;;;;;;9.35;2.33;;;;;;;7.67;86.76;102094.44;4962555;28;20504;-68
2023/05/24 01:35:27;;;;;;;9.75;2.35;;;;;;;7.63;87.41;102100.72;4961078;28;20034;-68
2023/05/24 01:37:52;;;;;;;8.00;2.08;;;;;;;7.62;87.71;102092.16;4965970;28;20053;-68
2023/05/24 01:40:18;;;;;;;6.25;2.10;;;;;;;7.62;87.59;102088.75;4951643;28;20034;-68
2023/05/24 01:42:51;;;;;;;11.30;1.58;;;;;;;7.62;87.53;102096.50;4964937;28;20881;-68
2023/05/24 01:45:19;;;;;;;;;;;;;;;7.59;87.52;102085.44;4962332;28;20133;-68
2023/05/24 01:48:06;;;;;;;11.38;2.90;;;;;;;7.58;87.82;102093.28;4964229;28;19920;-68
2023/05/24 01:50:37;;;;;;;7.45;1.70;;;;;;;7.55;87.66;102083.16;4960448;28;20054;-68
2023/05/24 01:53:07;;;;;;;10.52;2.22;;;;;;;7.53;88.00;102085.03;4961447;28;20062;-68
2023/05/24 01:55:34;;;;;;;15.50;2.50;;;;;;;7.50;88.05;102083.50;4967621;28;20035;-68
2023/05/24 01:58:02;;;;;;;7.78;2.15;;;;;;;7.49;87.98;102083.59;4980287;28;20535;-68
2023/05/24 02:00:29;;;;;;;9.60;2.00;;;;;;;7.46;88.18;102083.78;4966940;28;20041;-68
2023/05/24 02:02:56;;;;;;;9.93;1.98;;;;;;;7.43;88.41;102077.09;4945359;28;20034;-68
2023/05/24 02:05:22;;;;;;;6.03;1.67;;;;;;;7.41;88.57;102072.03;4984045;28;20030;-68
2023/05/24 02:07:47;;;;;;;12.15;2.03;;;;;;;7.38;88.73;102068.84;4960555;28;20080;-69
2023/05/24 02:10:13;;;;;;;13.05;1.83;;;;;;;7.33;88.51;102073.50;4961882;28;20038;-68
2023/05/24 02:12:38;;;;;;;9.13;1.90;;;;;;;7.29;88.99;102070.28;4961621;28;20034;-67
2023/05/24 02:15:05;;;;;;;9.27;2.00;;;;;;;7.27;89.14;102067.00;4975567;28;20549;-68
2023/05/24 02:17:31;;;;;;;10.43;1.90;;;;;;;7.26;89.33;102067.09;4960894;28;20137;-67
2023/05/24 02:19:58;;;;;;;13.05;3.50;;;;;;;7.22;89.48;102071.63;4972190;28;20066;-68
2023/05/24 02:22:25;;;;;;;15.52;2.33;;;;;;;7.20;89.26;102071.72;4962809;28;20030;-67
2023/05/24 02:24:51;;;;;;;9.35;2.13;;;;;;;7.09;89.08;102075.97;4968397;28;20038;-68
2023/05/24 02:27:16;;;;;;;8.30;1.92;;;;;;;6.96;89.08;102075.94;4973420;28;20088;-67
2023/05/24 02:29:42;;;;;;;9.48;2.03;;;;;;;6.87;89.80;102071.38;4985076;28;20101;-68
2023/05/24 02:32:07;;;;;;;8.52;1.98;;;;;;;6.80;90.14;102073.56;4968579;28;20039;-68
2023/05/24 02:34:33;;;;;;;11.95;2.20;;;;;;;6.79;90.56;102064.16;4963672;28;20054;-68
2023/05/24 02:36:58;;;;;;;9.45;2.50;;;;;;;6.79;90.84;102070.13;4967202;28;20456;-68
2023/05/24 02:39:24;;;;;;;8.05;1.85;;;;;;;6.80;90.88;102076.13;4968155;28;20045;-68
2023/05/24 02:41:49;;;;;;;9.57;2.25;;;;;;;6.77;91.01;102064.25;4982817;28;20046;-68
2023/05/24 02:44:15;;;;;;;10.80;1.95;;;;;;;6.76;91.11;102078.09;4979419;28;20047;-67
2023/05/24 02:46:40;;;;;;;9.55;2.30;;;;;;;6.75;91.33;102073.03;4980390;28;20030;-68
2023/05/24 02:49:06;;;;;;;10.10;2.22;;;;;;;6.74;91.32;102074.78;4961350;28;20432;-68
2023/05/24 02:51:31;;;;;;;7.45;2.10;;;;;;;6.72;91.29;102075.78;4945823;28;20034;-68
2023/05/24 02:53:57;;;;;;;9.55;1.83;;;;;;;6.59;90.58;102075.75;4963672;28;20500;-68
2023/05/24 02:56:23;;;;;;;5.88;1.98;;;;;;;6.50;91.14;102077.19;4984096;28;20036;-68
2023/05/24 02:58:48;;;;;;;5.10;2.15;;;;;;;6.47;91.69;102074.78;4965579;28;20121;-67
2023/05/24 03:01:14;;;;;;;7.10;1.80;;;;;;;6.48;91.64;102071.31;4966919;28;20053;-67
2023/05/24 03:03:40;;;;;;;14.60;2.63;;;;;;;6.50;91.73;102071.19;4970634;28;20401;-68
2023/05/24 03:06:06;;;;;;;8.80;2.42;;;;;;;6.49;91.98;102072.94;4967190;28;20046;-67
2023/05/24 03:08:36;;;;;;;11.10;2.92;;;;;;;6.50;92.27;102078.91;4967472;28;20070;-67
2023/05/24 03:11:02;;;;;;;8.50;2.60;;;;;;;6.47;92.69;102079.13;4965329;28;20045;-68
2023/05/24 03:13:28;;;;;;;9.18;2.88;;;;;;;6.40;92.37;102083.84;4981083;28;20073;-68
2023/05/24 03:15:53;;;;;;;11.48;2.42;;;;;;;6.29;92.13;102079.38;4968068;28;20446;-68
2023/05/24 03:18:19;;;;;;;9.10;2.30;;;;;;;6.26;92.72;102081.31;4960204;28;20039;-68
2023/05/24 03:20:45;;;;;;;9.20;2.65;;;;;;;6.24;92.84;102082.22;4975827;28;20034;-67
2023/05/24 03:23:13;;;;;;;13.13;2.65;;;;;;;6.26;92.97;102081.31;4980628;28;20509;-68
2023/05/24 03:25:39;;;;;;;16.52;2.95;;;;;;;6.27;93.19;102073.47;4973486;28;20452;-68
2023/05/24 03:28:05;;;;;;;11.35;2.30;;;;;;;6.28;93.22;102076.91;4964608;28;20129;-67
2023/05/24 03:30:32;;;;;;;16.10;2.88;;;;;;;6.28;93.58;102076.91;4980520;28;20026;-68
2023/05/24 03:32:58;;;;;;;12.32;3.33;;;;;;;6.26;93.81;102073.59;4965758;28;20030;-68
2023/05/24 03:35:24;;;;;;;9.07;2.78;;;;;;;6.24;93.56;102077.06;4964426;28;20379;-68
2023/05/24 03:37:50;;;;;;;7.13;2.63;;;;;;;6.24;93.71;102071.09;4973694;28;20114;-68
2023/05/24 03:40:16;;;;;;;11.55;2.75;;;;;;;6.23;93.92;102077.16;4962074;28;20477;-68
2023/05/24 03:43:07;;;;;;;8.23;2.78;;;;;;;6.23;94.31;102078.00;4977733;28;20058;-67
2023/05/24 03:45:44;;;;;;;15.80;2.70;;;;;;;6.21;93.95;102087.56;4955338;28;20043;-68
2023/05/24 03:48:10;;;;;;;9.57;4.00;;;;;;;6.20;94.36;102091.06;4981086;28;20077;-68
2023/05/24 03:50:35;;;;;;;13.88;2.90;;;;;;;6.14;94.93;102088.88;4952013;28;20046;-68
2023/05/24 03:53:01;;;;;;;9.40;2.70;;;;;;;6.12;94.77;102100.19;4965353;28;20077;-68
2023/05/24 03:55:26;;;;;;;10.93;2.72;;;;;;;6.12;94.93;102092.47;4978240;28;20476;-68
2023/05/24 03:57:52;;;;;;;8.80;2.63;;;;;;;6.15;95.14;102089.72;4966889;28;20051;-68
2023/05/24 04:00:17;;;;;;;10.02;3.00;;;;;;;6.17;95.15;102093.00;4968636;28;20022;-67
2023/05/24 04:02:45;;;;;;;11.73;2.40;;;;;;;6.18;95.22;102099.84;4981268;28;20038;-67
2023/05/24 04:05:12;;;;;;;9.88;2.63;;;;;;;6.20;95.13;102090.25;4961112;28;20050;-68
2023/05/24 04:07:39;;;;;;;11.82;3.00;;;;;;;6.22;95.15;102090.97;4980504;28;20030;-68
2023/05/24 04:10:07;;;;;;;9.48;2.80;;;;;;;6.23;94.98;102100.34;4964672;28;20343;-67
2023/05/24 04:12:33;;;;;;;9.63;3.33;;;;;;;6.21;95.55;102095.28;4980632;28;20042;-67
2023/05/24 04:14:59;;;;;;;12.68;3.10;;;;;;;6.17;95.68;102098.97;4947259;28;20100;-67
2023/05/24 04:17:26;;;;;;;8.98;3.05;;;;;;;6.15;96.23;102094.88;4948882;28;20418;-68
2023/05/24 04:19:53;;;;;;;10.10;3.22;;;;;;;6.17;96.54;102100.75;4985993;22;20420;-69
2023/05/24 04:22:18;;;;;;;11.82;3.60;;;;;;;6.18;96.63;102099.84;5009508;28;20045;-69
2023/05/24 04:24:45;;;;;;;11.80;3.22;;;;;;;6.19;96.95;102091.16;5016303;28;20139;-70
2023/05/24 04:27:10;;;;;;;11.93;3.53;;;;;;;6.21;97.38;102082.41;5002944;28;20076;-70
2023/05/24 04:29:38;;;;;;;10.55;3.25;;;;;;;6.24;97.75;102089.13;5009493;28;20042;-70
2023/05/24 04:32:05;;;;;;;8.13;3.10;;;;;;;6.26;97.76;102087.28;5001984;28;20463;-70
2023/05/24 04:34:32;;;;;;;11.38;3.17;;;;;;;6.30;98.01;102087.94;5026990;28;20711;-70
2023/05/24 04:36:59;;;;;;;11.55;3.10;;;;;;;6.33;98.21;102085.97;5020388;28;20033;-70
2023/05/24 04:39:25;;;;;;;12.05;3.35;;;;;;;6.36;98.55;102085.78;5014598;28;20116;-70
2023/05/24 04:41:51;;;;;;;14.65;4.07;;;;;;;6.39;98.81;102085.59;5015666;28;20554;-70
2023/05/24 04:44:17;;;;;;;11.38;2.78;;;;;;;6.42;98.69;102090.56;5019463;28;20042;-70
2023/05/24 04:46:43;;;;;;;12.30;3.75;;;;;;;6.46;99.08;102088.63;5039584;28;22021;-70
2023/05/24 04:49:08;;;;;;;10.38;3.22;;;;;;;6.52;99.54;102097.72;5011789;28;20045;-70
2023/05/24 04:51:37;;;;;;;11.80;3.38;;;;;;;6.57;99.51;102095.63;5018274;28;20036;-70
2023/05/24 04:54:07;;;;;;;8.85;2.50;;;;;;;6.64;99.28;102104.63;5020830;28;20053;-70
2023/05/24 04:56:34;;;;;;;11.65;3.60;;;;;;;6.69;99.60;102105.19;5019061;28;20164;-70
2023/05/24 04:59:00;;;;;;;16.08;3.75;;;;;;;6.75;99.67;102104.78;5009288;28;20432;-70
2023/05/24 05:01:26;;;;;;;16.15;4.18;;;;;;;6.80;99.75;102112.22;4998172;28;20038;-70
2023/05/24 05:03:51;;;;;;;18.83;4.00;;;;;;;6.82;99.70;102113.78;5004188;28;20112;-70
2023/05/24 05:06:17;;;;;;;19.83;4.30;;;;;;;6.87;100.00;102113.47;5018373;28;20026;-70
2023/05/24 05:08:42;;;;;;;10.55;3.88;;;;;;;6.92;99.68;102120.91;5021798;28;20561;-70
2023/05/24 05:11:08;;;;;;;15.40;4.20;;;;;;;6.94;99.67;102117.28;5022162;28;20025;-70
2023/05/24 05:13:34;;;;;;;14.40;4.05;;;;;;;6.99;99.81;102127.34;5018410;28;20538;-70
2023/05/24 05:16:00;;;;;;;12.52;3.42;;;;;;;7.01;100.00;102123.72;5002961;28;20037;-70
2023/05/24 05:18:26;;;;;;;14.65;4.05;;;;;;;7.06;100.00;102123.41;5029312;28;22750;-70
2023/05/24 05:20:51;;;;;;;14.13;4.32;;;;;;;7.12;100.00;102135.91;5022749;28;20040;-70
2023/05/24 05:23:17;;;;;;;14.05;4.28;;;;;;;7.16;100.00;102134.78;5018381;28;20034;-70
2023/05/24 05:25:42;;;;;;;18.15;4.55;;;;;;;7.20;100.00;102135.41;5018940;28;20568;-70
2023/05/24 05:28:08;;;;;;;14.23;3.95;;;;;;;7.26;100.00;102136.75;5014914;28;20128;-70
2023/05/24 05:30:33;;;;;;;15.63;4.28;;;;;;;7.30;100.00;102133.84;5018383;28;20029;-70
2023/05/24 05:32:58;;;;;;;19.05;4.60;;;;;;;7.33;100.00;102140.59;5012641;28;20041;-70
2023/05/24 05:35:24;;;;;;;16.23;4.25;;;;;;;7.39;100.00;102142.75;5015175;28;20052;-70
2023/05/24 05:37:49;;;;;;;11.07;5.00;;;;;;;7.46;100.00;102140.56;5002779;28;20422;-70
2023/05/24 05:40:15;;;;;;;18.27;4.70;;;;;;;7.52;100.00;102133.25;5013330;28;20094;-70
2023/05/24 05:42:41;;;;;;;14.88;4.43;;;;;;;7.56;100.00;102137.28;5011217;28;20076;-70
2023/05/24 05:45:07;;;;;;;20.65;5.15;;;;;;;7.59;100.00;102149.13;5016293;28;20041;-70
2023/05/24 05:47:32;;;;;;;19.02;4.47;;;;;;;7.62;99.78;102143.78;5018149;28;20036;-70
2023/05/24 05:49:57;;;;;;;20.60;6.13;;;;;;;7.68;99.48;102139.97;5015993;28;20491;-70
2023/05/24 05:52:23;;;;;;;17.73;5.20;;;;;;;7.81;99.34;102140.78;5013720;28;20037;-70
2023/05/24 05:54:48;;;;;;;21.83;5.90;;;;;;;7.92;99.40;102133.09;5011489;28;20053;-70
2023/05/24 05:57:15;;;;;;;18.33;4.82;;;;;;;8.06;99.00;102139.06;4998917;28;20045;-70
2023/05/24 05:59:40;;;;;;;18.92;4.15;;;;;;;8.20;98.27;102141.53;5021925;28;20057;-70
2023/05/24 06:02:06;;;;;;;16.35;4.95;;;;;;;8.25;97.37;102144.63;5033365;28;20064;-70
2023/05/24 06:04:31;;;;;;;15.38;4.93;;;;;;;8.46;95.82;102137.13;5019492;28;21716;-70
2023/05/24 06:06:57;;;;;;;17.63;4.50;;;;;;;8.60;95.21;102128.38;5020012;28;20029;-70
2023/05/24 06:09:22;;;;;;;21.88;5.43;;;;;;;8.98;94.36;102126.53;5005660;28;20403;-70
2023/05/24 06:11:48;;;;;;;15.50;4.72;;;;;;;9.26;92.92;102120.94;5020476;28;20038;-70
2023/05/24 06:14:18;;;;;;;14.55;4.18;;;;;;;9.39;92.17;102122.63;5017470;28;20045;-70
2023/05/24 06:16:44;;;;;;;16.58;4.03;;;;;;;9.55;91.85;102126.53;5000403;28;20076;-70
2023/05/24 06:19:11;;;;;;;27.40;5.75;;;;;;;9.63;90.36;102127.72;5032955;28;20470;-70
2023/05/24 06:21:36;;;;;;;18.65;5.25;;;;;;;9.59;88.85;102124.53;5016960;28;20033;-70
2023/05/24 06:24:02;;;;;;;29.67;5.30;;;;;;;9.80;88.38;102116.06;5014701;28;20049;-70
2023/05/24 06:26:28;;;;;;;35.63;6.93;;;;;;;9.96;87.96;102113.06;5023253;28;20064;-70
2023/05/24 06:28:54;;;;;;;23.30;4.47;;;;;;;10.21;87.19;102120.59;5019356;28;20489;-70
2023/05/24 06:31:20;;;;;;;22.10;4.05;;;;;;;10.57;85.59;102121.22;5015176;28;20033;-70
2023/05/24 06:33:45;;;;;;;19.48;5.10;;;;;;;10.58;85.88;102111.66;5019374;28;20041;-70
2023/05/24 06:36:11;;;;;;;16.05;4.32;;;;;;;10.55;84.97;102119.66;5017907;28;20034;-70
2023/05/24 06:38:37;;;;;;;19.13;4.18;;;;;;;10.60;83.78;102126.13;5022465;28;20053;-70
2023/05/24 06:41:02;;;;;;;25.17;5.00;;;;;;;10.96;83.37;102131.06;5021044;28;20419;-70
2023/05/24 06:43:28;;;;;;;23.38;4.35;;;;;;;10.96;81.70;102137.06;5018294;28;20045;-70
2023/05/24 06:45:53;;;;;;;25.70;4.70;;;;;;;10.83;81.89;102150.25;5015768;28;20048;-70
2023/05/24 06:48:19;;;;;;;20.50;4.68;;;;;;;10.63;82.27;102154.44;5013978;28;20053;-70
2023/05/24 06:50:45;;;;;;;18.58;4.35;;;;;;;10.57;82.47;102147.16;5016884;28;20450;-70
2023/05/24 06:53:10;;;;;;;25.60;5.18;;;;;;;10.79;83.18;102143.63;4995641;28;20037;-71
2023/05/24 06:55:36;;;;;;;19.58;4.55;;;;;;;11.14;81.66;102137.31;5019519;28;20088;-70
2023/05/24 06:58:01;;;;;;;26.95;5.25;;;;;;;11.22;80.62;102142.69;5014515;28;20044;-71
2023/05/24 07:00:27;;;;;;;23.42;5.13;;;;;;;11.53;80.18;102141.91;4998312;28;20037;-70
2023/05/24 07:02:53;;;;;;;18.92;4.40;;;;;;;11.79;79.31;102137.94;5016754;28;20037;-71
2023/05/24 07:05:18;;;;;;;27.38;4.78;;;;;;;12.60;77.15;102132.66;5011531;28;20030;-70
2023/05/24 07:07:44;;;;;;;22.42;4.50;;;;;;;12.87;74.83;102131.13;5000019;28;20377;-71
2023/05/24 07:10:10;;;;;;;28.90;5.57;;;;;;;12.42;73.91;102134.28;5018389;28;20048;-71
2023/05/24 07:12:36;;;;;;;19.20;4.10;;;;;;;12.68;76.78;102141.53;5022263;28;20037;-71
2023/05/24 07:15:08;;;;;;;22.23;4.60;;;;;;;12.61;75.00;102141.25;5003776;28;20045;-71
2023/05/24 07:17:34;;;;;;;19.85;4.65;;;;;;;12.98;73.33;102143.19;5021557;28;20033;-71
2023/05/24 07:20:00;;;;;;;19.10;4.10;;;;;;;13.07;70.75;102144.09;5018042;28;20693;-71
2023/05/24 07:22:27;;;;;;;18.98;3.92;;;;;;;13.85;69.32;102139.50;5023303;28;20029;-71
2023/05/24 07:24:53;;;;;;;26.20;3.88;;;;;;;14.48;65.78;102135.25;5015638;28;20168;-71
2023/05/24 07:27:19;;;;;;;26.70;5.00;;;;;;;14.96;65.24;102126.22;5017432;28;20519;-70
2023/05/24 07:29:44;;;;;;;20.33;4.00;;;;;;;15.62;64.16;102129.22;5017046;28;20046;-71
2023/05/24 07:32:10;;;;;;;32.08;4.25;;;;;;;15.71;61.87;102126.47;5018150;28;20392;-71
2023/05/24 07:34:35;;;;;;;31.33;4.78;;;;;;;15.47;61.91;102131.59;5018228;28;20057;-71
2023/05/24 07:37:01;;;;;;;24.17;5.28;;;;;;;15.52;60.30;102121.47;5018786;28;20037;-68
2023/05/24 07:39:27;;;;;;;19.30;4.88;;;;;;;14.80;62.31;102137.34;5018450;28;20159;-69
2023/05/24 07:41:55;;;;;;;25.35;4.57;;;;;;;14.33;64.06;102140.97;5015549;28;20040;-68
2023/05/24 07:44:22;;;;;;;24.35;4.50;;;;;;;13.98;68.04;102152.19;5016834;28;20133;-68
2023/05/24 07:46:48;;;;;;;25.83;5.75;;;;;;;13.60;68.99;102146.22;5019804;28;20415;-68
2023/05/24 07:49:13;;;;;;;19.77;4.22;;;;;;;13.51;70.00;102150.47;5017171;28;20054;-68
2023/05/24 07:51:39;;;;;;;24.80;4.85;;;;;;;13.35;69.63;102142.44;5018745;28;20111;-68
2023/05/24 07:54:05;;;;;;;17.77;4.47;;;;;;;13.25;70.03;102145.84;5005085;28;20053;-69
2023/05/24 07:56:31;;;;;;;18.70;4.00;;;;;;;13.18;70.24;102146.56;5015626;28;20033;-68
2023/05/24 07:59:02;;;;;;;21.38;4.53;;;;;;;13.19;70.41;102137.78;5013993;28;20053;-68
2023/05/24 08:01:28;;;;;;;26.83;4.95;;;;;;;13.12;70.92;102137.50;5020371;28;20133;-68
2023/05/24 08:03:55;;;;;;;22.00;4.05;;;;;;;13.22;70.85;102133.13;5017966;28;20029;-70
2023/05/24 08:06:21;;;;;;;20.40;4.55;;;;;;;13.39;71.69;102133.38;5021337;28;20115;-70
2023/05/24 08:08:47;;;;;;;25.33;5.32;;;;;;;13.38;70.21;102127.34;5011643;28;20183;-70
2023/05/24 08:11:12;;;;;;;18.58;4.60;;;;;;;13.26;70.53;102141.47;5020998;28;20108;-68
2023/05/24 08:13:38;;;;;;;18.52;4.63;;;;;;;13.18;71.93;102136.94;5020284;28;20033;-68
2023/05/24 08:16:03;;;;;;;19.55;4.50;;;;;;;13.23;72.02;102137.34;5017824;28;20033;-68
2023/05/24 08:18:29;;;;;;;22.88;4.22;;;;;;;13.28;71.01;102139.56;5014391;28;20490;-68
2023/05/24 08:20:54;;;;;;;21.10;5.68;;;;;;;13.55;70.27;102135.38;5001338;28;20033;-70
2023/05/24 08:23:20;;;;;;;15.73;4.00;;;;;;;13.26;70.07;102136.28;4994690;28;20049;-71
2023/05/24 08:25:46;;;;;;;22.27;4.53;;;;;;;13.28;69.90;102131.75;5017373;28;20495;-71
2023/05/24 08:28:11;;;;;;;16.60;4.05;;;;;;;13.44;69.57;102133.75;5015664;28;20033;-71
2023/05/24 08:30:37;;;;;;;20.27;4.18;;;;;;;14.01;67.42;102131.88;5031610;28;20084;-71
2023/05/24 08:33:03;;;;;;;23.40;4.55;;;;;;;14.15;65.34;102132.34;5014843;28;20045;-71
2023/05/24 08:35:28;;;;;;;20.60;3.90;;;;;;;13.68;67.09;102137.66;5014170;28;20033;-72
2023/05/24 08:37:54;;;;;;;18.30;3.40;;;;;;;13.48;67.75;102134.31;5009042;28;20079;-72
2023/05/24 08:40:19;;;;;;;15.07;3.95;;;;;;;13.51;67.80;102139.25;5020601;28;20056;-71
2023/05/24 08:42:45;;;;;;;28.23;5.47;;;;;;;13.32;67.57;102142.72;5013810;28;20095;-71
2023/05/24 08:45:12;;;;;;;21.60;4.97;;;;;;;13.32;67.37;102135.72;5013198;28;20073;-71
2023/05/24 08:47:39;;;;;;;15.40;3.75;;;;;;;13.37;68.54;102137.91;5016908;28;20033;-71
2023/05/24 08:50:06;;;;;;;17.65;4.65;;;;;;;13.32;68.30;102138.34;4999994;28;20111;-71
2023/05/24 08:52:31;;;;;;;19.20;4.50;;;;;;;13.59;67.61;102134.94;5017923;28;20044;-71
2023/05/24 08:55:03;;;;;;;13.07;3.58;;;;;;;13.87;67.43;102127.13;5014414;28;20045;-71
2023/05/24 08:57:31;;;;;;;14.00;3.42;;;;;;;14.19;67.39;102128.47;5003117;28;20154;-71
2023/05/24 08:59:57;;;;;;;23.02;5.28;;;;;;;14.21;66.23;102124.72;4992575;28;20515;-71
2023/05/24 09:02:23;;;;;;;14.90;4.15;;;;;;;14.19;64.83;102126.66;5020192;28;20026;-71
2023/05/24 09:04:50;;;;;;;23.00;4.10;;;;;;;14.36;64.96;102119.00;5000556;28;20101;-71
2023/05/24 09:07:17;;;;;;;16.67;3.58;;;;;;;14.48;65.49;102117.00;5016703;28;20033;-71
2023/05/24 09:09:48;;;;;;;18.27;3.80;;;;;;;14.25;65.37;102114.00;5020355;28;20104;-71
2023/05/24 09:12:16;;;;;;;17.95;3.97;;;;;;;14.18;64.51;102109.38;5018060;28;20071;-71
2023/05/24 09:14:46;;;;;;;17.05;3.92;;;;;;;13.96;64.61;102105.41;5020171;28;20579;-71
2023/05/24 09:17:14;;;;;;;15.43;3.47;;;;;;;13.73;65.79;102109.34;5015905;28;20036;-71
2023/05/24 09:19:44;;;;;;;16.27;4.00;;;;;;;13.76;66.73;102109.09;5017407;28;20419;-71
2023/05/24 09:22:12;;;;;;;16.77;4.03;;;;;;;13.77;66.27;102110.75;5000844;28;20159;-71
2023/05/24 09:24:42;;;;;;;24.45;3.83;;;;;;;13.79;66.39;102117.44;5014473;28;20563;-71
2023/05/24 09:27:08;;;;;;;18.20;3.75;;;;;;;13.97;66.78;102117.47;5017749;28;20034;-70
2023/05/24 09:29:37;;;;;;;10.98;3.72;;;;;;;13.85;65.26;102123.84;5014812;28;20435;-71
2023/05/24 09:32:03;;;;;;;19.25;4.15;;;;;;;13.80;65.52;102116.44;4993092;28;20038;-71
2023/05/24 09:34:37;;;;;;;13.20;2.88;;;;;;;14.01;65.92;102104.94;5018735;28;20216;-71
2023/05/24 09:37:04;;;;;;;16.42;3.47;;;;;;;14.05;65.72;102108.09;5013794;28;20646;-70
2023/05/24 09:39:30;;;;;;;21.65;3.55;;;;;;;14.13;65.81;102105.59;5015402;28;20096;-71
2023/05/24 09:41:57;;;;;;;14.68;4.22;;;;;;;14.15;66.25;102109.69;5018593;28;20087;-71
2023/05/24 09:44:28;;;;;;;22.70;4.97;;;;;;;14.34;66.26;102107.91;5015236;28;20107;-71
2023/05/24 09:47:03;;;;;;;15.18;3.67;;;;;;;14.14;63.55;102107.22;5013346;28;20115;-71
2023/05/24 09:49:29;;;;;;;17.08;4.05;;;;;;;13.93;63.79;102104.88;5029509;28;20135;-70
2023/05/24 09:51:55;;;;;;;15.90;3.17;;;;;;;14.00;63.81;102104.13;5012895;28;20116;-71
2023/05/24 09:54:21;;;;;;;20.35;4.57;;;;;;;13.92;64.88;102101.47;5017220;28;20411;-71
2023/05/24 09:56:47;;;;;;;24.13;3.90;;;;;;;13.81;63.55;102105.06;5018621;28;20029;-71
2023/05/24 09:59:13;;;;;;;15.13;3.15;;;;;;;13.90;63.76;102103.38;5010873;28;20046;-71
2023/05/24 10:01:38;;;;;;;16.17;4.03;;;;;;;13.78;62.42;102104.53;5016669;28;20030;-71
2023/05/24 10:04:07;;;;;;;22.55;3.50;;;;;;;13.49;63.38;102110.72;5016126;28;20052;-71
2023/05/24 10:06:37;;;;;;;18.90;3.30;;;;;;;13.53;64.24;102113.84;5031418;28;20045;-71
2023/05/24 10:09:08;;;;;;;17.20;4.00;;;;;;;13.62;64.06;102110.41;5015792;28;20511;-71
2023/05/24 10:11:35;;;;;;;15.18;3.60;;;;;;;13.58;64.41;102117.69;5017174;28;20380;-71
2023/05/24 10:14:06;;;;;;;19.25;3.95;;;;;;;13.80;65.34;102113.03;5016098;28;20056;-71
2023/05/24 10:16:32;;;;;;;20.80;4.55;;;;;;;13.80;65.76;102111.25;5017169;28;20442;-70
2023/05/24 10:18:58;;;;;;;17.45;3.88;;;;;;;13.99;64.94;102110.34;5016670;28;20156;-71
2023/05/24 10:21:26;;;;;;;15.07;3.90;;;;;;;14.34;63.53;102105.28;5035104;23;20030;-68
2023/05/24 10:23:56;;;;;;;16.13;3.40;;;;;;;15.01;61.80;102104.84;5015909;28;20041;-69
2023/05/24 10:26:25;;;;;;;23.42;3.83;;;;;;;15.27;61.08;102089.16;5030712;28;20052;-68
2023/05/24 10:28:58;;;;;;;12.63;3.83;;;;;;;15.68;56.17;102091.97;5028300;28;20168;-69
2023/05/24 10:31:33;;;;;;;8.77;2.83;;;;;;;15.70;57.80;102084.78;5035367;28;20032;-69
2023/05/24 10:34:00;;;;;;;12.48;3.47;;;;;;;15.80;57.05;102088.09;5029594;28;20164;-68
2023/05/24 10:36:26;;;;;;;13.55;3.10;;;;;;;15.99;56.26;102083.56;5029015;28;20025;-69
2023/05/24 10:38:52;;;;;;;14.38;3.42;;;;;;;16.20;56.47;102085.72;5035042;28;20517;-69
2023/05/24 10:41:18;;;;;;;18.90;3.25;;;;;;;16.06;56.67;102088.00;5037396;28;20451;-69
2023/05/24 10:43:47;;;;;;;12.30;3.15;;;;;;;15.56;54.83;102075.75;5033080;28;20037;-69
2023/05/24 10:46:17;;;;;;;19.70;3.47;;;;;;;15.52;56.07;102088.31;5051756;28;20021;-69
2023/05/24 10:48:43;;;;;;;13.60;3.25;;;;;;;15.49;56.63;102085.19;5052468;28;20522;-69
2023/05/24 10:51:31;;;;;;;14.48;3.08;;;;;;;15.34;56.78;102084.97;5042144;28;20036;-69
2023/05/24 10:53:57;;;;;;;15.77;3.45;;;;;;;15.44;55.29;102075.19;5038785;28;20079;-69
2023/05/24 10:56:25;;;;;;;11.55;2.78;;;;;;;15.56;53.81;102076.56;5035911;28;20450;-69
2023/05/24 10:58:54;;;;;;;11.93;3.08;;;;;;;15.80;53.72;102082.88;5037648;28;20052;-70
2023/05/24 11:01:30;;;;;;;10.85;2.60;;;;;;;15.87;52.40;102083.06;5041349;28;20044;-69
2023/05/24 11:04:10;;;;;;;9.25;2.40;;;;;;;15.62;52.49;102075.13;5035315;28;20046;-69
2023/05/24 11:06:49;;;;;;;10.02;2.42;;;;;;;15.61;55.14;102078.69;5040443;28;20220;-69
2023/05/24 11:09:16;;;;;;;11.48;4.13;;;;;;;15.63;54.22;102073.31;5039633;28;20049;-70
2023/05/24 11:11:46;;;;;;;12.90;2.97;;;;;;;15.76;54.02;102073.72;5038148;28;20048;-69
2023/05/24 11:14:13;;;;;;;11.32;2.88;;;;;;;16.33;52.62;102072.97;5036773;28;20045;-70
2023/05/24 11:16:39;;;;;;;15.52;3.20;;;;;;;16.45;50.62;102071.69;5030000;28;20731;-70
2023/05/24 11:19:13;;;;;;;9.48;2.22;;;;;;;16.78;51.64;102076.88;5038449;28;20037;-70
2023/05/24 11:21:42;;;;;;;18.35;3.35;;;;;;;16.69;51.10;102067.44;5034820;28;20099;-70
2023/05/24 11:24:08;;;;;;;12.57;3.53;;;;;;;16.58;50.08;102062.53;5038673;28;20084;-70